createdAt,value
2018-05-18T00:00:07.477Z,73.23
2018-05-18T00:01:07.442Z,72.99
2018-05-18T00:02:07.462Z,73.01
2018-05-18T00:03:07.490Z,73.4
2018-05-18T00:04:07.489Z,72.8
2018-05-18T00:05:07.477Z,72.77
2018-05-18T00:06:07.480Z,73.29
2018-05-18T00:07:07.506Z,73.4
2018-05-18T00:08:07.493Z,72.85
2018-05-18T00:09:07.583Z,72.92
2018-05-18T00:10:07.466Z,73.08
2018-05-18T00:11:07.459Z,72.93
2018-05-18T00:12:07.546Z,73.61
2018-05-18T00:13:07.479Z,73.53
2018-05-18T00:14:07.469Z,73.72
2018-05-18T00:15:07.455Z,73.34
2018-05-18T00:16:07.458Z,73.32
2018-05-18T00:17:07.466Z,73.69
2018-05-18T00:18:07.451Z,73.59
2018-05-18T00:19:07.462Z,74.02
2018-05-18T00:20:07.476Z,73.89
2018-05-18T00:21:07.480Z,73.94
2018-05-18T00:22:07.479Z,74.12
2018-05-18T00:23:07.490Z,73.89
2018-05-18T00:24:07.448Z,73.85
2018-05-18T00:25:07.469Z,74.05
2018-05-18T00:26:07.465Z,74.04
2018-05-18T00:27:07.464Z,74.53
2018-05-18T00:28:07.468Z,74.62
2018-05-18T00:29:07.462Z,74.46
2018-05-18T00:30:07.485Z,74.19
2018-05-18T00:31:07.484Z,74.32
2018-05-18T00:32:07.488Z,74.54
2018-05-18T00:33:07.525Z,74.8
2018-05-18T00:34:07.477Z,74.56
2018-05-18T00:35:07.467Z,74.72
2018-05-18T00:36:07.463Z,74.44
2018-05-18T00:37:07.488Z,74.39
2018-05-18T00:38:07.479Z,74.54
2018-05-18T00:39:07.487Z,74.71
2018-05-18T00:40:07.459Z,74.77
2018-05-18T00:41:07.488Z,74.82
2018-05-18T00:42:07.473Z,75
2018-05-18T00:43:07.471Z,74.99
2018-05-18T00:44:07.518Z,75.19
2018-05-18T00:45:07.477Z,75.08
2018-05-18T00:46:07.644Z,74.81
2018-05-18T00:47:07.517Z,74.89
2018-05-18T00:48:07.506Z,74.91
2018-05-18T00:49:07.486Z,75.06
2018-05-18T00:50:07.494Z,75.11
2018-05-18T00:51:07.509Z,75.05
2018-05-18T00:52:07.511Z,75.14
2018-05-18T00:53:07.494Z,74.95
2018-05-18T00:54:07.488Z,75.03
2018-05-18T00:55:07.514Z,74.91
2018-05-18T00:56:07.458Z,75.04
2018-05-18T00:57:07.505Z,75.16
2018-05-18T00:58:07.474Z,75.03
2018-05-18T00:59:07.468Z,75.01
2018-05-18T01:00:07.572Z,74.85
2018-05-18T01:01:07.537Z,74.71
2018-05-18T01:02:07.528Z,74.74
2018-05-18T01:03:07.621Z,75.25
2018-05-18T01:04:07.510Z,75.36
2018-05-18T01:05:07.520Z,75.33
2018-05-18T01:06:07.499Z,75.27
2018-05-18T01:07:07.496Z,75.22
2018-05-18T01:08:07.495Z,75.21
2018-05-18T01:09:07.527Z,75.26
2018-05-18T01:10:07.507Z,75.16
2018-05-18T01:11:07.488Z,75.36
2018-05-18T01:12:07.512Z,75.06
2018-05-18T01:13:07.500Z,74.87
2018-05-18T01:14:07.484Z,74.85
2018-05-18T01:15:08.053Z,74.57
2018-05-18T01:16:07.558Z,74.89
2018-05-18T01:17:07.482Z,74.57
2018-05-18T01:18:07.572Z,74.57
2018-05-18T01:19:07.644Z,74.46
2018-05-18T01:20:07.507Z,74.51
2018-05-18T01:21:07.504Z,74.85
2018-05-18T01:22:07.530Z,75.16
2018-05-18T01:23:07.518Z,74.79
2018-05-18T01:24:07.512Z,74.83
2018-05-18T01:25:07.513Z,74.92
2018-05-18T01:26:07.542Z,74.98
2018-05-18T01:27:07.515Z,74.88
2018-05-18T01:28:07.525Z,74.83
2018-05-18T01:29:07.523Z,74.98
2018-05-18T01:30:07.497Z,75.1
2018-05-18T01:31:07.510Z,75.21
2018-05-18T01:32:07.518Z,75.21
2018-05-18T01:33:07.861Z,75.62
2018-05-18T01:34:07.517Z,75.21
2018-05-18T01:35:07.525Z,75.89
2018-05-18T01:36:07.537Z,75.95
2018-05-18T01:37:07.509Z,76.12
2018-05-18T01:38:07.515Z,76.03
2018-05-18T01:39:07.498Z,76.28
2018-05-18T01:40:07.509Z,75.91
2018-05-18T01:41:07.629Z,75.69
2018-05-18T01:42:07.504Z,76.07
2018-05-18T01:43:07.546Z,75.9
2018-05-18T01:44:07.497Z,76.15
2018-05-18T01:45:07.492Z,76.35
2018-05-18T01:46:07.492Z,76.52
2018-05-18T01:47:07.519Z,76.32
2018-05-18T01:48:07.506Z,76.29
2018-05-18T01:49:07.516Z,76.01
2018-05-18T01:50:07.537Z,76.14
2018-05-18T01:51:07.902Z,76.22
2018-05-18T01:52:07.499Z,76.08
2018-05-18T01:53:07.525Z,76.1
2018-05-18T01:54:07.537Z,76.41
2018-05-18T01:55:07.506Z,76.99
2018-05-18T01:56:07.526Z,76.96
2018-05-18T01:57:07.538Z,76.69
2018-05-18T01:58:07.533Z,76.82
2018-05-18T01:59:07.534Z,76.7
2018-05-18T02:00:07.523Z,76.54
2018-05-18T02:01:07.855Z,76.55
2018-05-18T02:02:07.488Z,76.58
2018-05-18T02:03:07.489Z,76.3
2018-05-18T02:04:07.512Z,76.53
2018-05-18T02:05:07.644Z,76.45
2018-05-18T02:06:07.519Z,76.54
2018-05-18T02:07:07.510Z,76.43
2018-05-18T02:08:07.507Z,76.56
2018-05-18T02:09:07.500Z,76.49
2018-05-18T02:10:07.508Z,76.72
2018-05-18T02:11:07.537Z,76.85
2018-05-18T02:12:07.538Z,76.91
2018-05-18T02:13:07.552Z,76.95
2018-05-18T02:14:07.561Z,76.94
2018-05-18T02:15:07.495Z,76.77
2018-05-18T02:16:07.500Z,76.42
2018-05-18T02:17:07.512Z,76.45
2018-05-18T02:18:07.500Z,76.73
2018-05-18T02:19:07.508Z,76.97
2018-05-18T02:20:07.494Z,77.21
2018-05-18T02:21:07.517Z,76.69
2018-05-18T02:22:07.675Z,76.76
2018-05-18T02:23:07.701Z,76.56
2018-05-18T02:24:07.514Z,76.19
2018-05-18T02:25:07.671Z,76.56
2018-05-18T02:26:07.525Z,76.5
2018-05-18T02:27:07.514Z,76.31
2018-05-18T02:28:07.530Z,76.61
2018-05-18T02:29:07.520Z,76.43
2018-05-18T02:30:07.499Z,76.12
2018-05-18T02:31:07.507Z,76.34
2018-05-18T02:32:07.522Z,76.58
2018-05-18T02:33:07.511Z,76.4
2018-05-18T02:34:07.532Z,76.71
2018-05-18T02:35:07.522Z,76.71
2018-05-18T02:36:07.514Z,76.81
2018-05-18T02:37:07.526Z,76.71
2018-05-18T02:38:07.508Z,76.61
2018-05-18T02:39:07.538Z,76.8
2018-05-18T02:40:07.515Z,76.52
2018-05-18T02:41:07.531Z,76.74
2018-05-18T02:42:07.546Z,76.64
2018-05-18T02:43:07.520Z,76.65
2018-05-18T02:44:07.510Z,76.58
2018-05-18T02:45:07.516Z,76.57
2018-05-18T02:46:07.552Z,76.61
2018-05-18T02:47:07.620Z,76.2
2018-05-18T02:48:07.661Z,76.58
2018-05-18T02:49:07.630Z,76.12
2018-05-18T02:50:07.520Z,76.39
2018-05-18T02:51:07.513Z,76.54
2018-05-18T02:52:07.522Z,76.42
2018-05-18T02:53:07.519Z,76.83
2018-05-18T02:54:07.530Z,76.57
2018-05-18T02:55:07.535Z,76.7
2018-05-18T02:56:07.710Z,76.45
2018-05-18T02:57:07.718Z,76.63
2018-05-18T02:58:07.549Z,76.76
2018-05-18T02:59:07.595Z,76.57
2018-05-18T03:00:07.549Z,76.57
2018-05-18T03:01:07.540Z,76.27
2018-05-18T03:02:07.548Z,76.39
2018-05-18T03:03:07.549Z,76.26
2018-05-18T03:04:07.526Z,76.65
2018-05-18T03:05:07.716Z,76.62
2018-05-18T03:06:07.619Z,76.74
2018-05-18T03:07:07.570Z,76.79
2018-05-18T03:08:07.568Z,76.56
2018-05-18T03:09:07.537Z,76.84
2018-05-18T03:10:07.585Z,76.6
2018-05-18T03:11:07.552Z,76.61
2018-05-18T03:12:07.557Z,76.81
2018-05-18T03:13:07.702Z,76.62
2018-05-18T03:14:07.566Z,76.62
2018-05-18T03:15:07.663Z,76.83
2018-05-18T03:16:07.619Z,76.96
2018-05-18T03:17:07.705Z,76.61
2018-05-18T03:18:07.678Z,76.81
2018-05-18T03:19:07.556Z,76.73
2018-05-18T03:20:07.613Z,76.76
2018-05-18T03:21:07.562Z,76.8
2018-05-18T03:22:07.537Z,76.9
2018-05-18T03:23:07.593Z,76.93
2018-05-18T03:24:07.554Z,77.07
2018-05-18T03:25:07.538Z,77.26
2018-05-18T03:26:07.564Z,77.19
2018-05-18T03:27:07.552Z,77.24
2018-05-18T03:28:07.679Z,77.46
2018-05-18T03:29:07.550Z,77.83
2018-05-18T03:30:07.557Z,77.39
2018-05-18T03:31:07.577Z,77.34
2018-05-18T03:32:07.536Z,77.65
2018-05-18T03:33:07.547Z,77.04
2018-05-18T03:34:07.561Z,77.52
2018-05-18T03:35:07.552Z,77.4
2018-05-18T03:36:07.553Z,77.88
2018-05-18T03:37:07.535Z,77.26
2018-05-18T03:38:07.568Z,76.88
2018-05-18T03:39:07.536Z,77.12
2018-05-18T03:40:07.557Z,77.15
2018-05-18T03:41:07.570Z,77.2
2018-05-18T03:42:07.550Z,77.09
2018-05-18T03:43:07.556Z,77.01
2018-05-18T03:44:07.597Z,76.75
2018-05-18T03:45:07.560Z,76.88
2018-05-18T03:46:07.543Z,77.65
2018-05-18T03:47:07.540Z,76.9
2018-05-18T03:48:07.537Z,77.37
2018-05-18T03:49:07.538Z,77.38
2018-05-18T03:50:07.543Z,77.02
2018-05-18T03:51:07.548Z,77.33
2018-05-18T03:52:07.536Z,77.36
2018-05-18T03:53:07.548Z,77.24
2018-05-18T03:54:07.554Z,77.39
2018-05-18T03:55:07.551Z,77.31
2018-05-18T03:56:07.644Z,77.18
2018-05-18T03:57:07.543Z,77.35
2018-05-18T03:58:07.579Z,77.56
2018-05-18T03:59:07.555Z,77.56
2018-05-18T04:00:07.595Z,77.25
2018-05-18T04:01:07.558Z,77.29
2018-05-18T04:02:07.576Z,77.41
2018-05-18T04:03:07.535Z,78.1
2018-05-18T04:04:07.550Z,77.64
2018-05-18T04:05:07.700Z,77.36
2018-05-18T04:06:07.594Z,77.26
2018-05-18T04:07:07.582Z,77.82
2018-05-18T04:08:07.566Z,77.75
2018-05-18T04:09:07.659Z,77.51
2018-05-18T04:10:07.587Z,78.01
2018-05-18T04:11:07.561Z,77.95
2018-05-18T04:12:07.598Z,78.35
2018-05-18T04:13:07.561Z,78.3
2018-05-18T04:14:07.556Z,77.79
2018-05-18T04:15:07.693Z,78.23
2018-05-18T04:16:07.603Z,78.27
2018-05-18T04:17:07.889Z,78.19
2018-05-18T04:18:07.565Z,78.54
2018-05-18T04:19:07.593Z,78.58
2018-05-18T04:20:07.561Z,78.18
2018-05-18T04:21:07.552Z,78.19
2018-05-18T04:22:07.565Z,78.03
2018-05-18T04:23:07.584Z,78.25
2018-05-18T04:24:07.566Z,78.63
2018-05-18T04:25:07.592Z,78.58
2018-05-18T04:26:07.596Z,78.8
2018-05-18T04:27:07.557Z,78.5
2018-05-18T04:28:07.576Z,78.47
2018-05-18T04:29:07.576Z,79.05
2018-05-18T04:30:07.784Z,79.44
2018-05-18T04:31:07.583Z,79
2018-05-18T04:32:07.620Z,79.15
2018-05-18T04:33:07.602Z,78.87
2018-05-18T04:34:07.555Z,78.65
2018-05-18T04:35:07.547Z,79.1
2018-05-18T04:36:07.710Z,78.99
2018-05-18T04:37:07.559Z,79.21
2018-05-18T04:38:07.814Z,78.96
2018-05-18T04:39:07.555Z,78.85
2018-05-18T04:40:07.584Z,78.79
2018-05-18T04:41:07.571Z,78.72
2018-05-18T04:42:07.613Z,79.36
2018-05-18T04:43:07.831Z,78.91
2018-05-18T04:44:07.657Z,78.83
2018-05-18T04:45:07.571Z,78.85
2018-05-18T04:46:07.595Z,78.49
2018-05-18T04:47:07.660Z,78.81
2018-05-18T04:48:07.838Z,78.42
2018-05-18T04:49:07.608Z,78.99
2018-05-18T04:50:07.551Z,79.21
2018-05-18T04:51:07.560Z,79.05
2018-05-18T04:52:07.598Z,78.86
2018-05-18T04:53:07.635Z,78.86
2018-05-18T04:54:07.582Z,79.11
2018-05-18T04:55:07.594Z,78.83
2018-05-18T04:56:07.645Z,78.44
2018-05-18T04:57:07.574Z,78.88
2018-05-18T04:58:07.685Z,79.2
2018-05-18T04:59:07.858Z,79.08
2018-05-18T05:00:07.583Z,78.74
2018-05-18T05:01:07.602Z,79.22
2018-05-18T05:02:07.595Z,78.59
2018-05-18T05:03:07.593Z,78.9
2018-05-18T05:04:07.602Z,79.54
2018-05-18T05:05:07.570Z,79.74
2018-05-18T05:06:07.567Z,79.83
2018-05-18T05:07:07.738Z,79.78
2018-05-18T05:08:07.578Z,79.83
2018-05-18T05:09:07.594Z,79.31
2018-05-18T05:10:07.576Z,80.1
2018-05-18T05:11:07.623Z,80
2018-05-18T05:12:07.580Z,79.76
2018-05-18T05:13:07.580Z,80.59
2018-05-18T05:14:07.596Z,80.59
2018-05-18T05:15:07.595Z,80.32
2018-05-18T05:16:07.603Z,80.64
2018-05-18T05:17:07.617Z,80.57
2018-05-18T05:18:07.703Z,80.89
2018-05-18T05:19:07.588Z,81.1
2018-05-18T05:20:07.693Z,81.27
2018-05-18T05:21:07.587Z,81.58
2018-05-18T05:22:08.017Z,81.84
2018-05-18T05:23:07.622Z,81.77
2018-05-18T05:24:07.571Z,81.74
2018-05-18T05:25:08.464Z,81.96
2018-05-18T05:26:07.572Z,82.19
2018-05-18T05:27:07.950Z,82.29
2018-05-18T05:28:07.688Z,82.4
2018-05-18T05:29:07.584Z,82.43
2018-05-18T05:30:07.600Z,82.45
2018-05-18T05:31:07.600Z,82.21
2018-05-18T05:32:07.592Z,82.41
2018-05-18T05:33:07.604Z,82.44
2018-05-18T05:34:07.618Z,82.41
2018-05-18T05:35:07.606Z,82.38
2018-05-18T05:36:07.620Z,82.8
2018-05-18T05:37:07.593Z,82.41
2018-05-18T05:38:07.722Z,82.45
2018-05-18T05:39:07.642Z,82.42
2018-05-18T05:40:07.815Z,82.81
2018-05-18T05:41:07.661Z,82.73
2018-05-18T05:42:07.602Z,83.01
2018-05-18T05:43:07.637Z,82.19
2018-05-18T05:44:08.170Z,82.34
2018-05-18T05:45:07.613Z,82.1
2018-05-18T05:46:07.628Z,82.18
2018-05-18T05:47:07.608Z,82.44
2018-05-18T05:48:07.603Z,82.62
2018-05-18T05:49:07.628Z,82.13
2018-05-18T05:50:07.590Z,82.63
2018-05-18T05:51:07.615Z,82.82
2018-05-18T05:52:07.606Z,82.49
2018-05-18T05:53:07.637Z,82.65
2018-05-18T05:54:07.623Z,81.99
2018-05-18T05:55:07.584Z,82.14
2018-05-18T05:56:07.639Z,81.77
2018-05-18T05:57:07.596Z,81.89
2018-05-18T05:58:07.636Z,81.74
2018-05-18T05:59:07.684Z,81.07
2018-05-18T06:00:07.619Z,81.59
2018-05-18T06:01:07.619Z,81.9
2018-05-18T06:02:07.609Z,81.84
2018-05-18T06:03:07.627Z,81.42
2018-05-18T06:04:07.630Z,81.55
2018-05-18T06:05:07.600Z,82.13
2018-05-18T06:06:07.602Z,81.61
2018-05-18T06:07:07.612Z,81.78
2018-05-18T06:08:07.603Z,81.33
2018-05-18T06:09:07.623Z,81.33
2018-05-18T06:10:07.635Z,81.16
2018-05-18T06:11:07.597Z,81.46
2018-05-18T06:12:07.612Z,81.23
2018-05-18T06:13:07.650Z,81.19
2018-05-18T06:14:07.641Z,81.48
2018-05-18T06:15:07.627Z,81.53
2018-05-18T06:16:07.642Z,81.46
2018-05-18T06:17:07.635Z,81.1
2018-05-18T06:18:07.668Z,80.96
2018-05-18T06:19:07.661Z,80.25
2018-05-18T06:20:07.650Z,80.5
2018-05-18T06:21:07.632Z,80.24
2018-05-18T06:22:07.635Z,80.58
2018-05-18T06:23:07.604Z,80.56
2018-05-18T06:24:07.626Z,80.73
2018-05-18T06:25:07.616Z,81.26
2018-05-18T06:26:07.693Z,80.44
2018-05-18T06:27:07.623Z,80.34
2018-05-18T06:28:07.637Z,80.66
2018-05-18T06:29:07.664Z,80.97
2018-05-18T06:30:07.611Z,79.97
2018-05-18T06:31:07.638Z,80.21
2018-05-18T06:32:07.623Z,80.2
2018-05-18T06:33:07.619Z,80.29
2018-05-18T06:34:07.624Z,80.11
2018-05-18T06:35:07.736Z,80.37
2018-05-18T06:36:07.627Z,80.07
2018-05-18T06:37:07.628Z,79.51
2018-05-18T06:38:07.658Z,79.48
2018-05-18T06:39:07.708Z,78.69
2018-05-18T06:40:07.739Z,79.21
2018-05-18T06:41:07.621Z,79.17
2018-05-18T06:42:07.629Z,79.68
2018-05-18T06:43:07.608Z,79.04
2018-05-18T06:44:07.642Z,78.45
2018-05-18T06:45:07.706Z,78.82
2018-05-18T06:46:07.619Z,78.53
2018-05-18T06:47:07.633Z,78.55
2018-05-18T06:48:07.697Z,78.79
2018-05-18T06:49:07.651Z,78.61
2018-05-18T06:50:07.671Z,78.3
2018-05-18T06:51:07.645Z,78.46
2018-05-18T06:52:07.626Z,77.9
2018-05-18T06:53:07.806Z,77.88
2018-05-18T06:54:07.715Z,78.21
2018-05-18T06:55:07.896Z,78.15
2018-05-18T06:56:07.642Z,78.07
2018-05-18T06:57:07.640Z,77.74
2018-05-18T06:58:07.615Z,77.8
2018-05-18T06:59:07.769Z,78.24
2018-05-18T07:00:07.632Z,77.97
2018-05-18T07:01:07.652Z,78.16
2018-05-18T07:02:07.636Z,78.22
2018-05-18T07:03:07.635Z,78.48
2018-05-18T07:04:07.708Z,77.54
2018-05-18T07:05:07.632Z,76.73
2018-05-18T07:06:07.638Z,76.22
2018-05-18T07:07:07.638Z,76.56
2018-05-18T07:08:07.625Z,77.11
2018-05-18T07:09:07.634Z,77.75
2018-05-18T07:10:07.616Z,76.85
2018-05-18T07:11:07.631Z,76.9
2018-05-18T07:12:07.644Z,76.99
2018-05-18T07:13:07.647Z,76.53
2018-05-18T07:14:07.662Z,76.48
2018-05-18T07:15:07.875Z,76.44
2018-05-18T07:16:07.646Z,76.22
2018-05-18T07:17:07.724Z,76.15
2018-05-18T07:18:07.633Z,75.77
2018-05-18T07:19:07.650Z,76.08
2018-05-18T07:20:07.640Z,76.27
2018-05-18T07:21:07.674Z,75.73
2018-05-18T07:22:07.620Z,75.68
2018-05-18T07:23:07.796Z,74.97
2018-05-18T07:24:07.674Z,75.38
2018-05-18T07:25:07.652Z,74.78
2018-05-18T07:26:07.795Z,75.62
2018-05-18T07:27:07.696Z,75.58
2018-05-18T07:28:07.669Z,75.54
2018-05-18T07:29:07.758Z,75.33
2018-05-18T07:30:07.753Z,74.95
2018-05-18T07:31:07.694Z,74.42
2018-05-18T07:32:07.646Z,73.83
2018-05-18T07:33:07.670Z,73.73
2018-05-18T07:34:07.710Z,74.19
2018-05-18T07:35:07.650Z,74.81
2018-05-18T07:36:07.747Z,73.78
2018-05-18T07:37:07.751Z,73.22
2018-05-18T07:38:07.670Z,73.65
2018-05-18T07:39:07.648Z,73.84
2018-05-18T07:40:07.788Z,73.57
2018-05-18T07:41:07.658Z,73.4
2018-05-18T07:42:07.642Z,73.05
2018-05-18T07:43:07.663Z,73.31
2018-05-18T07:44:07.641Z,73.15
2018-05-18T07:45:07.776Z,73.01
2018-05-18T07:46:07.684Z,72.26
2018-05-18T07:47:07.663Z,72.51
2018-05-18T07:48:07.759Z,73.33
2018-05-18T07:49:07.652Z,73.07
2018-05-18T07:50:07.653Z,73.44
2018-05-18T07:51:07.679Z,72.66
2018-05-18T07:52:07.652Z,72.83
2018-05-18T07:53:07.668Z,72.65
2018-05-18T07:54:07.641Z,72.61
2018-05-18T07:55:07.643Z,72.97
2018-05-18T07:56:07.659Z,72.93
2018-05-18T07:57:07.657Z,72.56
2018-05-18T07:58:07.659Z,72.11
2018-05-18T07:59:07.664Z,71.51
2018-05-18T08:00:07.670Z,71.77
2018-05-18T08:01:07.659Z,71.08
2018-05-18T08:02:07.670Z,71.13
2018-05-18T08:03:07.645Z,70.44
2018-05-18T08:04:07.651Z,71.02
2018-05-18T08:05:07.662Z,71.47
2018-05-18T08:06:07.656Z,70.07
2018-05-18T08:07:07.655Z,70.58
2018-05-18T08:08:07.664Z,70.33
2018-05-18T08:09:07.740Z,68.49
2018-05-18T08:10:07.650Z,69.31
2018-05-18T08:11:07.657Z,69.1
2018-05-18T08:12:07.669Z,69.85
2018-05-18T08:13:07.659Z,70.21
2018-05-18T08:14:07.711Z,69.12
2018-05-18T08:15:07.672Z,70.26
2018-05-18T08:16:07.684Z,70.2
2018-05-18T08:17:07.663Z,69.38
2018-05-18T08:18:07.648Z,69.26
2018-05-18T08:19:07.677Z,69.88
2018-05-18T08:20:07.711Z,68.92
2018-05-18T08:21:07.668Z,68.85
2018-05-18T08:22:07.670Z,69.15
2018-05-18T08:23:07.678Z,68.64
2018-05-18T08:24:07.685Z,68.94
2018-05-18T08:25:07.684Z,69.01
2018-05-18T08:26:07.651Z,68.82
2018-05-18T08:27:07.764Z,68.65
2018-05-18T08:28:07.679Z,68.54
2018-05-18T08:29:07.807Z,68.64
2018-05-18T08:30:07.672Z,67.77
2018-05-18T08:31:07.853Z,67.71
2018-05-18T08:32:07.874Z,69.44
2018-05-18T08:33:07.716Z,68.69
2018-05-18T08:34:07.698Z,68.3
2018-05-18T08:35:07.689Z,66.89
2018-05-18T08:36:07.696Z,66.21
2018-05-18T08:37:07.677Z,66.49
2018-05-18T08:38:07.690Z,67.5
2018-05-18T08:39:07.722Z,66.86
2018-05-18T08:40:07.744Z,66.19
2018-05-18T08:41:07.649Z,66.14
2018-05-18T08:42:07.698Z,66.52
2018-05-18T08:43:07.672Z,66.29
2018-05-18T08:44:07.678Z,66.24
2018-05-18T08:45:08.079Z,66.36
2018-05-18T08:46:07.738Z,67.08
2018-05-18T08:47:07.694Z,67.28
2018-05-18T08:48:07.676Z,66.74
2018-05-18T08:49:07.859Z,66.29
2018-05-18T08:50:07.691Z,65.72
2018-05-18T08:51:07.680Z,66.24
2018-05-18T08:52:07.895Z,65.66
2018-05-18T08:53:07.688Z,65.44
2018-05-18T08:54:07.838Z,65.3
2018-05-18T08:55:07.723Z,65.44
2018-05-18T08:56:07.735Z,65.67
2018-05-18T08:57:07.805Z,65.3
2018-05-18T08:58:07.707Z,65.38
2018-05-18T08:59:07.669Z,65.16
2018-05-18T09:00:07.698Z,64.52
2018-05-18T09:01:07.683Z,64.64
2018-05-18T09:02:07.704Z,64.33
2018-05-18T09:03:07.682Z,64.45
2018-05-18T09:04:07.690Z,65.31
2018-05-18T09:05:07.679Z,65.46
2018-05-18T09:06:07.681Z,63.78
2018-05-18T09:07:07.684Z,64.28
2018-05-18T09:08:07.686Z,65
2018-05-18T09:09:07.748Z,63.95
2018-05-18T09:10:07.688Z,63.87
2018-05-18T09:11:07.738Z,64.29
2018-05-18T09:12:07.673Z,63.64
2018-05-18T09:13:07.678Z,64.09
2018-05-18T09:14:07.689Z,62.37
2018-05-18T09:15:07.706Z,62.74
2018-05-18T09:16:07.681Z,62.36
2018-05-18T09:17:07.673Z,62.9
2018-05-18T09:18:07.694Z,63.22
2018-05-18T09:19:07.715Z,62.84
2018-05-18T09:20:07.714Z,63.14
2018-05-18T09:21:07.747Z,63.03
2018-05-18T09:22:07.724Z,61.62
2018-05-18T09:23:07.721Z,62.85
2018-05-18T09:24:07.734Z,61.96
2018-05-18T09:25:07.727Z,62.05
2018-05-18T09:26:07.697Z,63.13
2018-05-18T09:27:07.706Z,64.32
2018-05-18T09:28:07.683Z,63.91
2018-05-18T09:29:07.685Z,63.92
2018-05-18T09:30:07.706Z,63.83
2018-05-18T09:31:07.705Z,63.23
2018-05-18T09:32:07.686Z,63.07
2018-05-18T09:33:07.702Z,62.76
2018-05-18T09:34:07.722Z,63.1
2018-05-18T09:35:07.712Z,61.67
2018-05-18T09:36:07.728Z,62.62
2018-05-18T09:37:07.706Z,61.36
2018-05-18T09:38:07.726Z,61.47
2018-05-18T09:39:07.874Z,61.63
2018-05-18T09:40:07.723Z,61.6
2018-05-18T09:41:07.701Z,61.74
2018-05-18T09:42:07.712Z,61.83
2018-05-18T09:43:07.742Z,62.46
2018-05-18T09:44:07.715Z,61.42
2018-05-18T09:45:07.859Z,61.27
2018-05-18T09:46:07.781Z,61.3
2018-05-18T09:47:07.705Z,61.95
2018-05-18T09:48:08.628Z,61.72
2018-05-18T09:49:07.726Z,61.29
2018-05-18T09:50:07.765Z,61.44
2018-05-18T09:51:07.715Z,60.86
2018-05-18T09:52:08.506Z,60.51
2018-05-18T09:53:08.142Z,60.34
2018-05-18T09:54:07.767Z,61.14
2018-05-18T09:55:08.783Z,60.76
2018-05-18T09:56:07.774Z,61.61
2018-05-18T09:57:07.719Z,60.75
2018-05-18T09:58:07.887Z,61.68
2018-05-18T09:59:07.898Z,62.15
2018-05-18T10:00:07.748Z,61.53
2018-05-18T10:01:07.702Z,61.92
2018-05-18T10:02:07.717Z,61.51
2018-05-18T10:03:07.715Z,60.67
2018-05-18T10:04:07.715Z,60.01
2018-05-18T10:05:07.737Z,60.3
2018-05-18T10:06:07.724Z,60.49
2018-05-18T10:07:07.720Z,61.15
2018-05-18T10:08:07.733Z,61.71
2018-05-18T10:09:07.927Z,60.6
2018-05-18T10:10:07.876Z,60.86
2018-05-18T10:11:07.734Z,60.58
2018-05-18T10:12:07.946Z,60.25
2018-05-18T10:13:07.755Z,59.91
2018-05-18T10:14:07.738Z,60.11
2018-05-18T10:15:07.870Z,60.49
2018-05-18T10:16:07.712Z,60.88
2018-05-18T10:17:07.732Z,61
2018-05-18T10:18:07.719Z,59.81
2018-05-18T10:19:07.731Z,60.53
2018-05-18T10:20:07.722Z,59.3
2018-05-18T10:21:07.732Z,59.3
2018-05-18T10:22:07.751Z,58.87
2018-05-18T10:23:07.741Z,57.63
2018-05-18T10:24:07.765Z,58.71
2018-05-18T10:25:07.715Z,58.31
2018-05-18T10:26:07.735Z,58.24
2018-05-18T10:27:07.803Z,57.85
2018-05-18T10:28:07.737Z,57.51
2018-05-18T10:29:07.741Z,57.86
2018-05-18T10:30:07.715Z,58.08
2018-05-18T10:31:07.721Z,56.8
2018-05-18T10:32:07.727Z,58.08
2018-05-18T10:33:07.717Z,57.24
2018-05-18T10:34:07.721Z,58.91
2018-05-18T10:35:07.740Z,58.89
2018-05-18T10:36:07.727Z,58.52
2018-05-18T10:37:07.744Z,58.7
2018-05-18T10:38:08.005Z,57.23
2018-05-18T10:39:07.725Z,56.99
2018-05-18T10:40:07.755Z,56.75
2018-05-18T10:41:07.755Z,57.51
2018-05-18T10:42:07.758Z,59.27
2018-05-18T10:43:07.762Z,59.28
2018-05-18T10:44:07.757Z,58.66
2018-05-18T10:45:07.750Z,58.19
2018-05-18T10:46:07.760Z,58.67
2018-05-18T10:47:08.393Z,56.73
2018-05-18T10:48:07.742Z,57.72
2018-05-18T10:49:08.508Z,57.04
2018-05-18T10:50:07.738Z,57.46
2018-05-18T10:51:07.750Z,57.4
2018-05-18T10:52:07.768Z,57.75
2018-05-18T10:53:07.960Z,58.09
2018-05-18T10:54:07.810Z,58.25
2018-05-18T10:55:07.847Z,57.47
2018-05-18T10:56:07.764Z,57.94
2018-05-18T10:57:07.998Z,58.96
2018-05-18T10:58:07.775Z,58.35
2018-05-18T10:59:08.474Z,57.79
2018-05-18T11:00:08.488Z,57.08
2018-05-18T11:01:08.771Z,56.88
2018-05-18T11:02:08.396Z,56.85
2018-05-18T11:03:08.924Z,57.91
2018-05-18T11:04:08.556Z,57.51
2018-05-18T11:05:08.757Z,57.38
2018-05-18T11:06:08.057Z,56.91
2018-05-18T11:07:07.748Z,56.18
2018-05-18T11:08:07.753Z,57.04
2018-05-18T11:09:07.826Z,57.21
2018-05-18T11:10:07.750Z,57.94
2018-05-18T11:11:07.753Z,57.55
2018-05-18T11:12:07.782Z,56.95
2018-05-18T11:13:07.755Z,57.91
2018-05-18T11:14:07.905Z,57.95
2018-05-18T11:15:07.820Z,56.53
2018-05-18T11:16:07.755Z,57.33
2018-05-18T11:17:07.764Z,56.65
2018-05-18T11:18:07.763Z,58.06
2018-05-18T11:19:07.794Z,57.24
2018-05-18T11:20:07.887Z,56.39
2018-05-18T11:21:07.810Z,56.75
2018-05-18T11:22:07.755Z,56.52
2018-05-18T11:23:07.758Z,56.18
2018-05-18T11:24:07.913Z,56.16
2018-05-18T11:25:07.867Z,57.04
2018-05-18T11:26:07.794Z,57.38
2018-05-18T11:27:07.778Z,55.26
2018-05-18T11:28:07.797Z,56.02
2018-05-18T11:29:07.782Z,56.45
2018-05-18T11:30:07.771Z,55.3
2018-05-18T11:31:07.794Z,56.08
2018-05-18T11:32:07.782Z,55.4
2018-05-18T11:33:07.804Z,55.2
2018-05-18T11:34:07.750Z,55.68
2018-05-18T11:35:07.764Z,55.86
2018-05-18T11:36:07.747Z,56.49
2018-05-18T11:37:07.754Z,56.3
2018-05-18T11:38:07.766Z,54.72
2018-05-18T11:39:07.784Z,55.45
2018-05-18T11:40:07.761Z,56.29
2018-05-18T11:41:07.855Z,56.5
2018-05-18T11:42:07.806Z,56.34
2018-05-18T11:43:07.780Z,56.07
2018-05-18T11:44:07.776Z,54.99
2018-05-18T11:45:07.801Z,54.62
2018-05-18T11:46:07.794Z,55.56
2018-05-18T11:47:07.762Z,54.61
2018-05-18T11:48:07.926Z,54.97
2018-05-18T11:49:07.844Z,55.08
2018-05-18T11:50:07.991Z,55.38
2018-05-18T11:51:07.801Z,55.03
2018-05-18T11:52:07.749Z,54.33
2018-05-18T11:53:07.788Z,55.33
2018-05-18T11:54:07.786Z,55.24
2018-05-18T11:55:07.783Z,54.94
2018-05-18T11:56:07.826Z,55.11
2018-05-18T11:57:08.154Z,54.85
2018-05-18T11:58:07.807Z,53.54
2018-05-18T11:59:07.783Z,54.15
2018-05-18T12:00:07.873Z,53.79
2018-05-18T12:01:07.863Z,53.8
2018-05-18T12:02:07.802Z,53.86
2018-05-18T12:03:07.860Z,53.69
2018-05-18T12:04:07.801Z,54.21
2018-05-18T12:05:07.824Z,54.19
2018-05-18T12:06:07.766Z,54.55
2018-05-18T12:07:07.876Z,53.19
2018-05-18T12:08:07.915Z,54.05
2018-05-18T12:09:07.765Z,55.15
2018-05-18T12:10:07.852Z,53.54
2018-05-18T12:11:07.865Z,53.91
2018-05-18T12:12:07.788Z,52.58
2018-05-18T12:13:07.809Z,53.98
2018-05-18T12:14:07.820Z,53.78
2018-05-18T12:15:07.858Z,53.56
2018-05-18T12:16:07.793Z,52.68
2018-05-18T12:17:07.845Z,54.35
2018-05-18T12:18:07.950Z,54.16
2018-05-18T12:19:07.833Z,55.01
2018-05-18T12:20:07.872Z,54.11
2018-05-18T12:21:07.834Z,54.22
2018-05-18T12:22:07.874Z,52.54
2018-05-18T12:23:07.785Z,53.51
2018-05-18T12:24:07.787Z,52.62
2018-05-18T12:25:07.858Z,52.32
2018-05-18T12:26:07.816Z,52.76
2018-05-18T12:27:07.887Z,53.13
2018-05-18T12:28:07.815Z,52.93
2018-05-18T12:29:07.853Z,52.48
2018-05-18T12:30:07.818Z,52.39
2018-05-18T12:31:07.842Z,52.45
2018-05-18T12:32:07.800Z,52.47
2018-05-18T12:33:07.832Z,52.91
2018-05-18T12:34:07.850Z,52.35
2018-05-18T12:35:07.805Z,51.89
2018-05-18T12:36:07.835Z,51.43
2018-05-18T12:37:07.801Z,51.45
2018-05-18T12:38:07.801Z,50.68
2018-05-18T12:39:07.790Z,50.68
2018-05-18T12:40:07.789Z,51.06
2018-05-18T12:41:07.791Z,51.01
2018-05-18T12:42:07.872Z,51.6
2018-05-18T12:43:07.781Z,52.05
2018-05-18T12:44:07.827Z,50.16
2018-05-18T12:45:07.893Z,50.03
2018-05-18T12:46:08.111Z,49.32
2018-05-18T12:47:07.826Z,49.43
2018-05-18T12:48:07.814Z,49.43
2018-05-18T12:49:07.922Z,49.7
2018-05-18T12:50:07.925Z,49.66
2018-05-18T12:51:07.934Z,49.08
2018-05-18T12:52:07.815Z,49.56
2018-05-18T12:53:07.956Z,48.5
2018-05-18T12:54:08.150Z,48.52
2018-05-18T12:55:07.864Z,47.85